Airfield :
LOGIN :

Register | Disclaimer

   EN    FR    IT 

 










Legend :    VFR   Marginal VFR   IFR   Intensive IFR   Very Intensive IFR
Visi :
Ceiling :
>= 8 km
>= 3000ft
5 to 8 km
1000 to 3000 ft
1500m to 5 km
500 to 1000 ft
800 to 1500m
200 to 500 ft
< 800m
< 200 ft
Symbols :   Thunderstorms  Fog  Heavy snow  Heavy precipitations  Wind > 20 kt
SIGMETs :     Misc.  Thunderstorms  Icing  Turbulence  Mountain Waves  Volcanic Ashes







- Airport Elevation : 659 ft
- IATA code : LGG


EBLG - Liège

CURRENT METAR :
  • 250650Z 28008KT 240V310 9999 FEW012 SCT020 04/03 Q1023 NOSIG

EXPIRED METARs :
  • 250620Z 28007KT 9999 FEW012 SCT020 04/03 Q1023 NOSIG
  • 250550Z 30009KT 8000 -RA FEW012 BKN022 04/03 Q1023 NOSIG
  • 250520Z 27010KT 9999 SCT020 04/02 Q1022 NOSIG
  • 250450Z 27011KT 9999 FEW023 SCT034 04/02 Q1022 NOSIG
  • 250420Z 27012KT 9999 FEW023 BKN034 04/02 Q1022 NOSIG

TAF TAF EBLG
Valid from the 25 at 06:00 until the 26 at 12:00 UTC


250520Z 2506/2612 29010KT 9999 SCT025
PROB30
TEMPO 2506/2513 SHRA
BECMG 2508/2510 33016G28KT
BECMG 2516/2518 33011KT
PROB30
TEMPO 2603/2608 27005KT
No reported NOTAMs for that airfield.



MET'MAP, your aeronautical weather chart ! - Copyright ORBIFLY December 2007 - Disclaimer

ORBIFLY MET'MAP TEAM :

Programming & Development : Alexandra Zaïnal
Concept & Development : Baudouin d'Aumeries
Co-Development & Prog : Marc-Olivier Méhu
Technical & hardware support : Manuel Goepfert

Contact : metmap@orbifly.com




SOURCES & CREDITS :

   NOAA